Time;durP1;ratioP1;P1;durP2;ratioP2;P2;SDS_P1;SDS_P2;PMS_P1;PMS_P2;Temp;Humidity;BMP_temperature;BMP_pressure;BME280_temperature;BME280_humidity;BME280_pressure;Samples;Min_cycle;Max_cycle;Signal;HPM_P1;HPM_P2
2023/01/30 00:01:36;;;;;;;20.02;9.80;;;;;;;;;;8479056;28;20043;-92
2023/01/30 00:05:39;;;;;;;13.30;7.80;;;;;;;;;;8476563;28;20487;-87
2023/01/30 00:09:42;;;;;;;24.92;11.60;;;;;;;;;;8477937;28;20448;-92
2023/01/30 00:13:48;;;;;;;18.35;6.97;;;;;;;;;;8490144;28;20040;-88
2023/01/30 00:17:50;;;;;;;26.65;11.57;;;;;;;;;;8481962;27;20076;-85
2023/01/30 00:21:53;;;;;;;16.58;8.10;;;;;;;;;;8491306;27;20106;-88
2023/01/30 00:25:57;;;;;;;23.55;11.05;;;;;;;;;;8473262;27;20051;-85
2023/01/30 00:30:04;;;;;;;23.70;11.23;;;;;;;;;;8495423;27;20536;-93
2023/01/30 00:34:07;;;;;;;26.88;10.82;;;;;;;;;;8469550;27;20052;-89
2023/01/30 00:38:10;;;;;;;30.20;12.27;;;;;;;;;;8483191;27;20046;-89
2023/01/30 00:50:57;;;;;;;23.40;11.55;;;;;;;;;;8467061;27;20100;-90
2023/01/30 00:55:03;;;;;;;23.00;10.82;;;;;;;;;;8480605;27;20376;-89
2023/01/30 00:59:06;;;;;;;23.63;10.90;;;;;;;;;;8485164;27;20049;-87
2023/01/30 01:03:11;;;;;;;27.83;11.30;;;;;;;;;;8491316;27;20039;-85
2023/01/30 01:07:15;;;;;;;31.95;13.10;;;;;;;;;;8485301;27;20122;-90
2023/01/30 01:11:23;;;;;;;33.70;12.88;;;;;;;;;;8484266;27;20043;-84
2023/01/30 01:15:27;;;;;;;23.90;10.55;;;;;;;;;;8479082;27;20054;-86
2023/01/30 01:19:31;;;;;;;25.08;12.13;;;;;;;;;;8480556;27;20471;-92
2023/01/30 01:23:34;;;;;;;30.92;13.23;;;;;;;;;;8479967;27;20043;-87
2023/01/30 01:27:38;;;;;;;21.08;9.43;;;;;;;;;;8487855;27;20047;-88
2023/01/30 01:31:41;;;;;;;31.77;12.40;;;;;;;;;;8485113;27;20043;-86
2023/01/30 01:35:47;;;;;;;29.13;13.05;;;;;;;;;;8601907;22;20047;-89
2023/01/30 01:44:11;;;;;;;25.67;10.48;;;;;;;;;;8384065;28;20056;-91
2023/01/30 01:48:19;;;;;;;31.20;12.40;;;;;;;;;;8407362;28;20124;-91
2023/01/30 01:52:23;;;;;;;21.48;10.85;;;;;;;;;;8414796;28;20076;-92
2023/01/30 01:56:30;;;;;;;20.50;9.65;;;;;;;;;;8409786;28;20078;-93
2023/01/30 02:00:36;;;;;;;27.35;12.27;;;;;;;;;;8408221;28;20036;-93
2023/01/30 02:09:08;;;;;;;29.52;12.23;;;;;;;;;;8400920;28;20040;-92
2023/01/30 02:13:11;;;;;;;22.23;10.95;;;;;;;;;;8429849;28;20043;-92
2023/01/30 02:17:17;;;;;;;20.45;10.82;;;;;;;;;;8424701;28;20127;-92
2023/01/30 02:21:51;;;;;;;26.45;11.52;;;;;;;;;;8396476;28;20063;-91
2023/01/30 02:26:29;;;;;;;27.33;11.95;;;;;;;;;;8413556;28;20829;-89
2023/01/30 02:31:12;;;;;;;24.27;10.55;;;;;;;;;;8427630;28;20063;-90
2023/01/30 02:35:24;;;;;;;21.15;10.93;;;;;;;;;;8413059;28;20388;-90
2023/01/30 02:39:32;;;;;;;;;;;;;;;;;;8432045;28;20052;-89
2023/01/30 02:43:44;;;;;;;23.10;10.10;;;;;;;;;;8418708;28;19926;-91
2023/01/30 02:47:53;;;;;;;25.25;9.50;;;;;;;;;;8431575;28;20052;-90
2023/01/30 02:52:00;;;;;;;17.52;8.05;;;;;;;;;;8410230;28;20137;-92
2023/01/30 02:56:04;;;;;;;27.90;12.05;;;;;;;;;;8416353;28;20449;-87
2023/01/30 03:00:08;;;;;;;23.13;11.77;;;;;;;;;;8412617;28;20040;-91
2023/01/30 03:04:32;;;;;;;21.30;10.98;;;;;;;;;;8409008;28;20579;-89
2023/01/30 03:08:48;;;;;;;29.27;12.30;;;;;;;;;;8413090;28;20124;-87
2023/01/30 03:12:57;;;;;;;23.70;11.55;;;;;;;;;;8431719;28;20055;-91
2023/01/30 03:17:03;;;;;;;27.98;12.13;;;;;;;;;;8427130;28;20449;-88
2023/01/30 03:21:07;;;;;;;32.10;12.13;;;;;;;;;;8409459;28;20138;-89
2023/01/30 03:25:14;;;;;;;27.98;12.75;;;;;;;;;;8426290;28;20044;-88
2023/01/30 03:29:17;;;;;;;28.15;13.43;;;;;;;;;;8423074;28;20040;-90
2023/01/30 03:33:22;;;;;;;33.28;15.02;;;;;;;;;;8430978;28;20403;-91
2023/01/30 03:37:27;;;;;;;32.55;13.73;;;;;;;;;;8430646;28;20166;-89
2023/01/30 03:41:30;;;;;;;31.65;15.02;;;;;;;;;;8411440;28;20045;-87
2023/01/30 03:45:33;;;;;;;35.67;13.75;;;;;;;;;;8423885;28;20123;-88
2023/01/30 03:49:37;;;;;;;24.40;10.50;;;;;;;;;;8428279;28;20060;-89
2023/01/30 03:53:41;;;;;;;34.92;14.50;;;;;;;;;;8436118;28;20048;-89
2023/01/30 03:57:44;;;;;;;33.25;13.43;;;;;;;;;;8430830;28;20407;-89
2023/01/30 04:01:47;;;;;;;34.15;14.82;;;;;;;;;;8430457;28;20066;-89
2023/01/30 04:05:50;;;;;;;30.75;12.52;;;;;;;;;;8405135;28;20048;-90
2023/01/30 04:09:54;;;;;;;28.70;13.15;;;;;;;;;;8436889;28;20044;-89
2023/01/30 04:13:57;;;;;;;25.58;11.85;;;;;;;;;;8422624;28;20131;-88
2023/01/30 04:18:00;;;;;;;35.97;16.13;;;;;;;;;;8423675;28;20091;-88
2023/01/30 04:22:03;;;;;;;25.15;12.90;;;;;;;;;;8436199;28;20139;-88
2023/01/30 04:26:12;;;;;;;28.98;12.40;;;;;;;;;;8436396;28;20050;-88
2023/01/30 04:30:15;;;;;;;36.67;16.60;;;;;;;;;;8422447;28;20077;-90
2023/01/30 04:34:18;;;;;;;31.25;14.35;;;;;;;;;;8422312;28;20135;-87
2023/01/30 04:38:22;;;;;;;40.90;17.17;;;;;;;;;;8435775;28;20052;-90
2023/01/30 04:42:27;;;;;;;32.40;13.65;;;;;;;;;;8406103;28;20480;-88
2023/01/30 04:46:30;;;;;;;22.00;9.98;;;;;;;;;;8430997;28;20043;-88
2023/01/30 04:50:33;;;;;;;35.97;15.23;;;;;;;;;;8413851;28;20048;-92
2023/01/30 04:54:36;;;;;;;31.33;12.57;;;;;;;;;;8429369;28;20557;-88
2023/01/30 04:58:40;;;;;;;32.17;13.45;;;;;;;;;;8423710;28;20125;-88
2023/01/30 05:02:43;;;;;;;32.63;14.25;;;;;;;;;;8432526;28;20372;-87
2023/01/30 05:06:48;;;;;;;28.75;12.60;;;;;;;;;;8423529;28;20044;-86
2023/01/30 05:10:51;;;;;;;25.52;10.65;;;;;;;;;;8419982;28;20464;-87
2023/01/30 05:14:55;;;;;;;28.48;12.50;;;;;;;;;;8430722;28;20064;-86
2023/01/30 05:18:58;;;;;;;23.98;11.35;;;;;;;;;;8448490;28;20082;-87
2023/01/30 05:23:00;;;;;;;31.67;12.73;;;;;;;;;;8447981;28;20032;-88
2023/01/30 05:27:04;;;;;;;18.35;8.20;;;;;;;;;;8457946;28;20044;-92
2023/01/30 05:31:10;;;;;;;22.42;10.82;;;;;;;;;;8424029;28;20058;-93
2023/01/30 05:35:13;;;;;;;27.85;12.77;;;;;;;;;;8422929;28;20080;-92
2023/01/30 05:39:19;;;;;;;23.88;10.95;;;;;;;;;;8434493;28;20406;-91
2023/01/30 05:43:22;;;;;;;21.00;10.07;;;;;;;;;;8422574;28;20048;-92
2023/01/30 05:47:26;;;;;;;25.45;11.05;;;;;;;;;;8428895;28;20127;-92
2023/01/30 05:51:29;;;;;;;19.60;10.57;;;;;;;;;;8404697;28;20109;-92
2023/01/30 05:55:32;;;;;;;21.98;11.02;;;;;;;;;;8431028;28;20040;-92
2023/01/30 05:59:35;;;;;;;20.25;10.55;;;;;;;;;;8434571;28;20071;-91
2023/01/30 06:03:39;;;;;;;15.90;8.00;;;;;;;;;;8416659;28;20113;-92
2023/01/30 06:07:42;;;;;;;19.95;9.07;;;;;;;;;;8419734;28;20495;-91
2023/01/30 06:11:45;;;;;;;25.80;9.77;;;;;;;;;;8408259;28;20045;-92
2023/01/30 06:15:48;;;;;;;21.88;10.13;;;;;;;;;;8414516;28;20074;-92
2023/01/30 06:19:53;;;;;;;22.17;9.57;;;;;;;;;;8414069;28;20070;-92
2023/01/30 06:23:56;;;;;;;21.52;10.50;;;;;;;;;;8400581;28;20068;-92
2023/01/30 06:27:58;;;;;;;17.23;9.25;;;;;;;;;;8383178;28;20542;-92
2023/01/30 06:32:01;;;;;;;14.55;6.82;;;;;;;;;;8414084;28;20044;-92
2023/01/30 06:36:07;;;;;;;28.67;13.90;;;;;;;;;;8421116;28;20048;-92
2023/01/30 06:40:12;;;;;;;19.02;8.00;;;;;;;;;;8432904;28;20044;-92
2023/01/30 06:44:15;;;;;;;20.10;9.25;;;;;;;;;;8407827;28;20047;-92
2023/01/30 06:48:18;;;;;;;14.93;7.30;;;;;;;;;;8406546;28;20044;-92
2023/01/30 06:52:22;;;;;;;21.25;8.55;;;;;;;;;;8400007;28;20127;-92
2023/01/30 06:56:25;;;;;;;7.97;4.85;;;;;;;;;;8426366;28;20130;-92
2023/01/30 07:00:28;;;;;;;14.80;5.88;;;;;;;;;;8412881;28;20044;-92
2023/01/30 07:04:31;;;;;;;18.63;9.20;;;;;;;;;;8399310;28;20094;-91
2023/01/30 07:08:36;;;;;;;19.75;9.57;;;;;;;;;;8411783;28;20043;-92
2023/01/30 07:12:39;;;;;;;14.75;8.35;;;;;;;;;;8432666;28;20048;-89
2023/01/30 07:16:42;;;;;;;23.48;9.25;;;;;;;;;;8411140;28;20043;-92
2023/01/30 07:20:47;;;;;;;18.40;8.90;;;;;;;;;;8422667;28;20052;-92
2023/01/30 07:24:52;;;;;;;15.73;7.55;;;;;;;;;;8406314;28;20124;-92
2023/01/30 07:28:57;;;;;;;17.27;8.57;;;;;;;;;;8399510;28;20064;-92
2023/01/30 07:33:01;;;;;;;18.55;9.30;;;;;;;;;;8425120;28;20048;-92
2023/01/30 07:37:03;;;;;;;21.52;9.45;;;;;;;;;;8415808;28;20109;-92
2023/01/30 07:41:08;;;;;;;15.07;8.00;;;;;;;;;;8393324;28;20530;-93
2023/01/30 07:45:11;;;;;;;16.67;8.55;;;;;;;;;;8427359;28;20075;-92
2023/01/30 07:49:14;;;;;;;16.15;8.18;;;;;;;;;;8402001;28;20041;-92
2023/01/30 07:53:18;;;;;;;18.23;7.78;;;;;;;;;;8420453;28;20047;-92
2023/01/30 07:57:25;;;;;;;12.68;7.13;;;;;;;;;;8429781;28;20415;-92
2023/01/30 08:01:29;;;;;;;18.42;9.65;;;;;;;;;;8442228;28;20090;-92
2023/01/30 08:05:31;;;;;;;17.95;9.18;;;;;;;;;;8432296;28;20402;-92
2023/01/30 08:09:34;;;;;;;20.88;10.20;;;;;;;;;;8431055;28;20067;-89
2023/01/30 08:13:41;;;;;;;16.88;8.75;;;;;;;;;;8428763;28;20506;-89
2023/01/30 08:17:44;;;;;;;23.80;10.88;;;;;;;;;;8423326;28;20040;-91
2023/01/30 08:21:50;;;;;;;19.85;8.68;;;;;;;;;;8411185;28;20460;-92
2023/01/30 08:25:55;;;;;;;12.65;6.07;;;;;;;;;;8400659;28;20060;-88
2023/01/30 08:30:13;;;;;;;13.70;7.20;;;;;;;;;;8394960;28;20052;-92
2023/01/30 08:34:16;;;;;;;20.98;8.90;;;;;;;;;;8418426;28;20159;-90
2023/01/30 08:38:19;;;;;;;17.60;9.32;;;;;;;;;;8404680;28;20044;-89
2023/01/30 08:42:22;;;;;;;17.33;8.43;;;;;;;;;;8429839;28;20075;-90
2023/01/30 08:46:26;;;;;;;16.02;8.65;;;;;;;;;;8408674;28;20871;-87
2023/01/30 08:50:30;;;;;;;15.57;8.27;;;;;;;;;;8405432;28;20047;-88
2023/01/30 08:54:33;;;;;;;18.25;9.77;;;;;;;;;;8419807;28;20477;-85
2023/01/30 08:58:36;;;;;;;20.08;9.10;;;;;;;;;;8418528;28;20147;-88
2023/01/30 09:02:40;;;;;;;27.65;10.50;;;;;;;;;;8426339;28;20044;-87
2023/01/30 09:06:43;;;;;;;17.40;9.05;;;;;;;;;;8414578;28;20048;-86
2023/01/30 09:10:46;;;;;;;19.98;9.82;;;;;;;;;;8414424;28;20124;-89
2023/01/30 09:14:54;;;;;;;18.77;7.82;;;;;;;;;;8400238;28;20064;-90
2023/01/30 09:18:59;;;;;;;20.23;10.32;;;;;;;;;;8411111;28;20064;-88
2023/01/30 09:23:02;;;;;;;23.92;10.18;;;;;;;;;;8405352;28;20514;-88
2023/01/30 09:27:05;;;;;;;20.30;10.38;;;;;;;;;;8416359;28;20041;-89
2023/01/30 09:31:09;;;;;;;14.02;7.38;;;;;;;;;;8416906;28;20044;-90
2023/01/30 09:35:13;;;;;;;16.08;8.55;;;;;;;;;;8418632;28;20481;-92
2023/01/30 09:39:17;;;;;;;14.00;6.78;;;;;;;;;;8400452;28;20101;-89
2023/01/30 09:43:35;;;;;;;29.65;12.85;;;;;;;;;;8404268;28;20135;-91
2023/01/30 09:47:45;;;;;;;17.52;8.43;;;;;;;;;;8424053;28;20079;-88
2023/01/30 09:51:59;;;;;;;26.27;11.77;;;;;;;;;;8427218;28;20562;-88
2023/01/30 09:56:03;;;;;;;21.42;10.75;;;;;;;;;;8406657;28;20073;-89
2023/01/30 10:00:14;;;;;;;21.95;9.63;;;;;;;;;;8405682;28;20048;-90
2023/01/30 10:04:24;;;;;;;16.60;7.85;;;;;;;;;;8410464;28;20044;-89
2023/01/30 10:08:50;;;;;;;20.95;10.13;;;;;;;;;;8405771;28;20044;-89
2023/01/30 10:13:04;;;;;;;14.77;9.13;;;;;;;;;;8399436;28;20040;-89
2023/01/30 10:17:23;;;;;;;16.70;9.02;;;;;;;;;;8414566;28;20051;-89
2023/01/30 10:21:40;;;;;;;20.45;11.43;;;;;;;;;;8412757;28;20664;-88
2023/01/30 10:25:49;;;;;;;22.40;11.60;;;;;;;;;;8423176;28;20079;-89
2023/01/30 10:29:56;;;;;;;17.95;10.00;;;;;;;;;;8440108;28;20106;-91
2023/01/30 10:34:05;;;;;;;28.98;11.23;;;;;;;;;;8428748;28;20064;-88
2023/01/30 10:38:16;;;;;;;25.08;11.60;;;;;;;;;;8422553;28;20533;-91
2023/01/30 10:42:26;;;;;;;7.13;3.53;;;;;;;;;;8433147;28;20040;-91
2023/01/30 10:46:50;;;;;;;25.52;12.48;;;;;;;;;;8427456;28;20101;-88
2023/01/30 10:50:58;;;;;;;17.23;9.00;;;;;;;;;;8407188;28;20052;-92
2023/01/30 10:55:12;;;;;;;18.02;8.40;;;;;;;;;;8424988;28;20127;-92
2023/01/30 10:59:23;;;;;;;27.27;12.00;;;;;;;;;;8425329;28;20483;-96
2023/01/30 11:03:35;;;;;;;27.17;12.60;;;;;;;;;;8430976;28;20094;-93
2023/01/30 11:07:38;;;;;;;;;;;;;;;;;;8419558;28;20068;-92
2023/01/30 11:11:49;;;;;;;20.30;10.73;;;;;;;;;;8423528;28;20058;-90
2023/01/30 11:15:56;;;;;;;18.80;9.20;;;;;;;;;;8427585;28;20048;-91
2023/01/30 11:20:06;;;;;;;16.55;8.38;;;;;;;;;;8421654;28;20480;-91
2023/01/30 11:24:20;;;;;;;53.75;24.95;;;;;;;;;;8418383;28;20093;-92
2023/01/30 11:28:24;;;;;;;44.05;20.52;;;;;;;;;;8412679;28;20045;-91
2023/01/30 11:32:29;;;;;;;32.35;15.57;;;;;;;;;;8423369;28;20071;-92
2023/01/30 11:36:34;;;;;;;30.40;15.15;;;;;;;;;;8426353;28;20102;-93
2023/01/30 11:40:40;;;;;;;35.55;15.02;;;;;;;;;;8415515;28;20044;-93
2023/01/30 11:44:43;;;;;;;33.38;15.07;;;;;;;;;;8407541;28;20064;-93
2023/01/30 11:48:52;;;;;;;20.70;11.20;;;;;;;;;;8419344;28;20554;-91
2023/01/30 11:52:55;;;;;;;22.90;9.85;;;;;;;;;;8418496;28;20040;-93
2023/01/30 11:57:02;;;;;;;58.22;29.42;;;;;;;;;;8402379;28;20037;-93
2023/01/30 12:01:06;;;;;;;60.85;25.00;;;;;;;;;;8408364;28;20476;-93
2023/01/30 12:05:33;;;;;;;46.42;21.00;;;;;;;;;;8421880;28;20098;-93
2023/01/30 12:09:38;;;;;;;22.90;13.02;;;;;;;;;;8410544;28;20475;-93
2023/01/30 12:13:44;;;;;;;28.08;14.77;;;;;;;;;;8421764;28;20044;-90
2023/01/30 12:17:57;;;;;;;51.35;24.73;;;;;;;;;;8410651;28;20047;-93
2023/01/30 12:22:15;;;;;;;27.00;14.80;;;;;;;;;;8427235;28;20043;-91
2023/01/30 12:30:35;;;;;;;;;;;;;;;;;;8420986;22;20531;-93
2023/01/30 12:34:39;;;;;;;16.35;7.95;;;;;;;;;;8416912;28;19920;-93
2023/01/30 12:38:56;;;;;;;12.60;7.53;;;;;;;;;;8431120;28;20123;-93
2023/01/30 12:43:25;;;;;;;30.23;14.75;;;;;;;;;;8432325;28;20127;-94
2023/01/30 12:47:49;;;;;;;35.55;19.33;;;;;;;;;;8384563;28;20528;-90
2023/01/30 12:52:10;;;;;;;23.27;11.48;;;;;;;;;;8392332;28;20098;-95
2023/01/30 12:56:35;;;;;;;18.58;8.50;;;;;;;;;;8408085;28;20044;-94
2023/01/30 13:00:50;;;;;;;31.77;15.50;;;;;;;;;;8428286;28;20048;-91
2023/01/30 13:05:07;;;;;;;27.27;13.07;;;;;;;;;;8420997;28;20540;-91
2023/01/30 13:09:27;;;;;;;25.67;11.65;;;;;;;;;;8413991;28;20044;-92
2023/01/30 13:13:41;;;;;;;19.17;8.75;;;;;;;;;;8415687;28;20151;-93
2023/01/30 13:18:07;;;;;;;21.05;11.05;;;;;;;;;;8413256;28;20044;-93
2023/01/30 13:22:18;;;;;;;26.13;12.88;;;;;;;;;;8425802;28;20048;-91
2023/01/30 13:26:24;;;;;;;24.60;13.02;;;;;;;;;;8412153;28;20093;-92
2023/01/30 13:30:30;;;;;;;21.08;10.73;;;;;;;;;;8419209;28;20064;-94
2023/01/30 13:34:36;;;;;;;12.73;6.28;;;;;;;;;;8406158;28;20055;-89
2023/01/30 13:38:44;;;;;;;24.52;12.15;;;;;;;;;;8402236;28;20131;-96
2023/01/30 13:42:54;;;;;;;17.48;8.18;;;;;;;;;;8419290;28;20071;-94
2023/01/30 13:47:12;;;;;;;23.27;10.90;;;;;;;;;;8425751;28;20051;-91
2023/01/30 13:51:28;;;;;;;24.92;14.13;;;;;;;;;;8418817;28;20143;-89
2023/01/30 13:55:39;;;;;;;17.52;9.38;;;;;;;;;;8418884;28;20134;-89
2023/01/30 14:00:21;;;;;;;23.92;12.23;;;;;;;;;;8408644;28;20415;-87
2023/01/30 14:04:54;;;;;;;22.27;11.18;;;;;;;;;;8410010;28;20267;-86
2023/01/30 14:09:00;;;;;;;23.23;11.13;;;;;;;;;;8868647;22;20071;-88
2023/01/30 14:13:06;;;;;;;17.30;9.30;;;;;;;;;;8402739;28;20128;-88
2023/01/30 14:17:16;;;;;;;15.63;8.27;;;;;;;;;;8412855;28;20079;-94
2023/01/30 14:21:30;;;;;;;23.85;13.10;;;;;;;;;;8420151;28;20048;-85
2023/01/30 14:25:49;;;;;;;24.45;11.25;;;;;;;;;;8392250;28;20059;-92
2023/01/30 14:29:57;;;;;;;20.35;10.85;;;;;;;;;;8415120;28;20117;-85
2023/01/30 14:34:02;;;;;;;21.48;12.02;;;;;;;;;;8401609;28;20040;-93
2023/01/30 14:38:20;;;;;;;38.80;17.55;;;;;;;;;;8389474;28;20117;-88
2023/01/30 14:42:26;;;;;;;28.17;14.05;;;;;;;;;;8424411;28;20731;-90
2023/01/30 14:46:48;;;;;;;21.77;12.40;;;;;;;;;;8418254;28;20047;-91
2023/01/30 14:51:10;;;;;;;22.10;12.40;;;;;;;;;;8404165;28;20043;-89
2023/01/30 14:55:28;;;;;;;23.70;13.17;;;;;;;;;;8407002;28;20690;-91
2023/01/30 14:59:34;;;;;;;10.45;5.97;;;;;;;;;;8416205;28;20484;-87
2023/01/30 15:03:40;;;;;;;30.45;15.88;;;;;;;;;;8401116;28;20455;-86
2023/01/30 15:07:47;;;;;;;17.70;8.27;;;;;;;;;;8409980;28;20075;-87
2023/01/30 15:12:06;;;;;;;35.40;16.58;;;;;;;;;;8404058;28;20048;-85
2023/01/30 15:16:38;;;;;;;24.77;14.70;;;;;;;;;;8405514;28;20048;-91
2023/01/30 15:20:52;;;;;;;13.43;8.18;;;;;;;;;;8400024;28;20047;-86
2023/01/30 15:29:30;;;;;;;27.20;11.93;;;;;;;;;;8597036;22;20141;-87
2023/01/30 15:33:33;;;;;;;33.90;15.23;;;;;;;;;;8245436;28;20509;-85
2023/01/30 15:37:39;;;;;;;28.50;12.48;;;;;;;;;;8268144;28;20644;-87
2023/01/30 15:41:41;;;;;;;28.98;15.93;;;;;;;;;;8238181;28;20150;-86
2023/01/30 15:46:01;;;;;;;31.35;16.30;;;;;;;;;;8261177;28;20070;-87
2023/01/30 15:50:09;;;;;;;23.40;12.18;;;;;;;;;;8264818;28;20608;-87
2023/01/30 15:54:17;;;;;;;24.50;12.77;;;;;;;;;;8281556;28;20207;-87
2023/01/30 15:58:22;;;;;;;25.27;12.57;;;;;;;;;;8281608;28;20049;-86
2023/01/30 16:02:32;;;;;;;20.50;10.68;;;;;;;;;;8267167;28;20101;-87
2023/01/30 16:06:37;;;;;;;26.60;12.90;;;;;;;;;;8256473;28;20050;-91
2023/01/30 16:10:49;;;;;;;23.50;10.38;;;;;;;;;;8261791;28;20042;-86
2023/01/30 16:14:56;;;;;;;24.50;12.98;;;;;;;;;;8281048;28;20050;-87
2023/01/30 16:19:05;;;;;;;36.80;16.48;;;;;;;;;;8279245;28;20177;-88
2023/01/30 16:23:21;;;;;;;28.85;11.98;;;;;;;;;;8271752;28;20054;-89
2023/01/30 16:27:29;;;;;;;25.80;12.52;;;;;;;;;;8280672;28;20204;-88
2023/01/30 16:31:35;;;;;;;41.42;18.00;;;;;;;;;;8282256;28;20073;-87
2023/01/30 16:35:47;;;;;;;33.88;15.90;;;;;;;;;;8301107;22;20060;-86
2023/01/30 16:40:05;;;;;;;34.67;17.30;;;;;;;;;;8294642;28;20077;-86
2023/01/30 16:44:20;;;;;;;28.00;13.60;;;;;;;;;;8293033;28;20133;-86
2023/01/30 16:48:31;;;;;;;22.55;10.63;;;;;;;;;;8295971;28;20050;-85
2023/01/30 16:52:44;;;;;;;21.75;9.38;;;;;;;;;;8297451;28;20042;-82
2023/01/30 16:56:48;;;;;;;;;;;;;;;;;;8295097;28;20722;-85
2023/01/30 17:01:01;;;;;;;20.55;9.35;;;;;;;;;;8296098;28;19932;-89
2023/01/30 17:05:19;;;;;;;10.27;4.50;;;;;;;;;;8293280;28;20474;-85
2023/01/30 17:09:40;;;;;;;21.88;12.05;;;;;;;;;;8295154;28;20065;-84
2023/01/30 17:13:45;;;;;;;19.02;10.93;;;;;;;;;;8297347;28;20054;-88
2023/01/30 17:17:49;;;;;;;18.63;11.45;;;;;;;;;;8296117;28;20045;-88
2023/01/30 17:21:53;;;;;;;22.60;12.27;;;;;;;;;;8297483;28;20052;-87
2023/01/30 17:25:59;;;;;;;21.65;12.80;;;;;;;;;;8310685;28;20065;-85
2023/01/30 17:30:07;;;;;;;15.40;9.70;;;;;;;;;;8317563;28;20054;-86
2023/01/30 17:34:13;;;;;;;25.80;13.55;;;;;;;;;;8311172;28;20073;-87
2023/01/30 17:38:19;;;;;;;17.67;10.02;;;;;;;;;;8316124;28;20488;-86
2023/01/30 17:42:30;;;;;;;16.42;10.02;;;;;;;;;;8314360;28;20433;-87
2023/01/30 17:46:38;;;;;;;19.20;9.48;;;;;;;;;;8309314;28;20113;-89
2023/01/30 17:50:44;;;;;;;15.10;8.52;;;;;;;;;;8299044;28;20045;-85
2023/01/30 17:54:48;;;;;;;21.75;10.88;;;;;;;;;;8297790;28;20117;-86
2023/01/30 17:58:53;;;;;;;24.98;11.13;;;;;;;;;;8297106;28;20146;-87
2023/01/30 18:02:57;;;;;;;24.52;11.35;;;;;;;;;;8295548;28;20405;-86
2023/01/30 18:07:05;;;;;;;23.75;12.30;;;;;;;;;;8296033;28;20073;-86
2023/01/30 18:11:10;;;;;;;19.77;10.70;;;;;;;;;;8309422;28;20160;-86
2023/01/30 18:15:17;;;;;;;12.95;7.25;;;;;;;;;;8297165;28;20045;-87
2023/01/30 18:19:22;;;;;;;22.30;10.80;;;;;;;;;;8297827;28;20046;-88
2023/01/30 18:23:29;;;;;;;17.35;9.25;;;;;;;;;;8296791;28;20045;-88
2023/01/30 18:27:34;;;;;;;19.00;9.70;;;;;;;;;;8295422;28;20516;-87
2023/01/30 18:31:41;;;;;;;20.77;10.07;;;;;;;;;;8295851;28;20046;-90
2023/01/30 18:35:45;;;;;;;27.88;9.60;;;;;;;;;;8294780;28;20050;-87
2023/01/30 18:39:50;;;;;;;21.63;10.70;;;;;;;;;;8295589;28;20563;-87
2023/01/30 18:43:58;;;;;;;23.42;10.95;;;;;;;;;;8295737;28;20042;-87
2023/01/30 18:48:06;;;;;;;22.25;9.10;;;;;;;;;;8295965;28;20481;-88
2023/01/30 18:52:10;;;;;;;20.45;8.90;;;;;;;;;;8295030;28;20049;-88
2023/01/30 18:56:17;;;;;;;20.42;9.02;;;;;;;;;;8295114;28;20387;-86
2023/01/30 19:00:24;;;;;;;25.75;10.88;;;;;;;;;;8295141;28;20425;-88
2023/01/30 19:04:29;;;;;;;20.70;8.30;;;;;;;;;;8294857;28;20180;-86
2023/01/30 19:08:34;;;;;;;21.33;10.75;;;;;;;;;;8295212;28;20370;-87
2023/01/30 19:17:01;;;;;;;27.70;9.48;;;;;;;;;;8294478;28;20053;-89
2023/01/30 19:21:08;;;;;;;13.05;4.50;;;;;;;;;;8281157;28;20042;-86
2023/01/30 19:25:14;;;;;;;17.20;8.35;;;;;;;;;;8293955;28;20136;-86
2023/01/30 19:29:21;;;;;;;13.70;6.13;;;;;;;;;;8295107;28;20057;-90
2023/01/30 19:33:28;;;;;;;14.73;7.60;;;;;;;;;;8274099;28;20054;-87
2023/01/30 19:37:42;;;;;;;5.43;2.90;;;;;;;;;;8294367;28;20049;-89
2023/01/30 19:41:49;;;;;;;8.63;5.45;;;;;;;;;;8284916;28;20490;-86
2023/01/30 19:45:59;;;;;;;32.35;12.50;;;;;;;;;;8292267;28;20064;-88
2023/01/30 19:50:06;;;;;;;17.92;7.47;;;;;;;;;;8289248;28;20092;-89
2023/01/30 19:54:17;;;;;;;;;;;;;;;;;;8297139;28;20048;-88
2023/01/30 19:58:22;;;;;;;17.95;8.18;;;;;;;;;;8297440;28;19926;-88
2023/01/30 20:02:37;;;;;;;14.63;6.97;;;;;;;;;;8280999;28;20195;-89
2023/01/30 20:06:44;;;;;;;16.70;7.60;;;;;;;;;;8283098;28;20507;-86
2023/01/30 20:10:51;;;;;;;14.88;7.30;;;;;;;;;;8296817;28;20061;-91
2023/01/30 20:14:55;;;;;;;15.35;8.45;;;;;;;;;;8297275;28;20042;-88
2023/01/30 20:19:03;;;;;;;18.98;8.43;;;;;;;;;;8297721;28;20046;-90
2023/01/30 20:23:10;;;;;;;11.73;5.95;;;;;;;;;;8294874;28;20050;-89
2023/01/30 20:27:17;;;;;;;13.98;7.18;;;;;;;;;;8294852;28;20056;-89
2023/01/30 20:31:23;;;;;;;16.80;8.48;;;;;;;;;;8296223;28;20121;-92
2023/01/30 20:35:27;;;;;;;14.60;6.57;;;;;;;;;;8301521;28;20498;-91
2023/01/30 20:39:32;;;;;;;12.63;6.05;;;;;;;;;;8302860;28;20077;-92
2023/01/30 20:43:39;;;;;;;13.57;6.60;;;;;;;;;;8302428;28;20485;-89
2023/01/30 20:47:59;;;;;;;8.13;4.90;;;;;;;;;;8300109;28;20048;-89
2023/01/30 20:52:05;;;;;;;17.90;8.55;;;;;;;;;;8276827;28;20128;-89
2023/01/30 20:56:09;;;;;;;29.25;10.60;;;;;;;;;;8309351;28;20129;-90
2023/01/30 21:00:17;;;;;;;17.70;9.65;;;;;;;;;;8303274;28;20046;-90
2023/01/30 21:04:26;;;;;;;18.40;8.90;;;;;;;;;;8303073;28;20054;-90
2023/01/30 21:08:35;;;;;;;13.98;7.13;;;;;;;;;;8302919;28;20053;-90
2023/01/30 21:12:41;;;;;;;12.90;6.00;;;;;;;;;;8277184;28;20052;-91
2023/01/30 21:16:46;;;;;;;18.48;9.40;;;;;;;;;;8302597;28;20136;-89
2023/01/30 21:20:50;;;;;;;20.92;9.15;;;;;;;;;;8303001;28;20508;-90
2023/01/30 21:24:54;;;;;;;13.65;7.15;;;;;;;;;;8302562;28;20072;-91
2023/01/30 21:29:01;;;;;;;8.52;4.53;;;;;;;;;;8302559;28;20558;-90
2023/01/30 21:33:07;;;;;;;11.10;5.95;;;;;;;;;;8302807;28;20081;-90
2023/01/30 21:46:02;;;;;;;;;;;;;;;;;;8267734;28;20085;-90
2023/01/30 21:50:08;;;;;;;7.15;3.72;;;;;;;;;;8301557;28;19925;-90
2023/01/30 21:54:12;;;;;;;7.80;4.90;;;;;;;;;;8302143;28;20065;-90
2023/01/30 21:58:15;;;;;;;11.23;5.03;;;;;;;;;;8301651;28;20046;-90
2023/01/30 22:02:18;;;;;;;8.98;4.57;;;;;;;;;;8301465;28;20543;-91
2023/01/30 22:06:26;;;;;;;9.40;5.03;;;;;;;;;;8301924;28;20056;-91
2023/01/30 22:10:29;;;;;;;5.20;3.45;;;;;;;;;;8301080;28;20560;-91
2023/01/30 22:14:34;;;;;;;10.10;6.18;;;;;;;;;;8295986;28;20081;-90
2023/01/30 22:18:38;;;;;;;7.40;4.88;;;;;;;;;;8293745;28;20056;-91
2023/01/30 22:22:43;;;;;;;11.85;4.40;;;;;;;;;;8300675;28;20136;-92
2023/01/30 22:26:46;;;;;;;3.75;2.38;;;;;;;;;;8301050;28;20045;-89
2023/01/30 22:30:49;;;;;;;11.82;5.65;;;;;;;;;;8282452;28;20085;-92
2023/01/30 22:34:52;;;;;;;14.38;6.45;;;;;;;;;;8293465;28;20575;-91
2023/01/30 22:38:58;;;;;;;12.30;6.05;;;;;;;;;;8300941;28;20046;-89
2023/01/30 22:43:01;;;;;;;10.02;4.97;;;;;;;;;;8300518;28;20077;-90
2023/01/30 22:47:04;;;;;;;15.20;6.57;;;;;;;;;;8300274;28;20046;-91
2023/01/30 22:51:10;;;;;;;13.15;5.85;;;;;;;;;;8300279;28;20052;-92
2023/01/30 22:55:15;;;;;;;5.88;3.13;;;;;;;;;;8286870;28;20048;-92
2023/01/30 22:59:18;;;;;;;11.85;5.65;;;;;;;;;;8300060;28;20072;-91
2023/01/30 23:03:21;;;;;;;11.10;4.95;;;;;;;;;;8300032;28;20081;-91
2023/01/30 23:07:24;;;;;;;12.38;5.25;;;;;;;;;;8299905;28;20522;-91
2023/01/30 23:11:33;;;;;;;10.60;6.03;;;;;;;;;;8297677;28;20141;-93
2023/01/30 23:15:39;;;;;;;13.98;5.53;;;;;;;;;;8294584;28;20121;-91
2023/01/30 23:19:42;;;;;;;14.10;6.55;;;;;;;;;;8299739;28;20099;-91
2023/01/30 23:23:46;;;;;;;13.85;5.38;;;;;;;;;;8301750;28;20046;-91
2023/01/30 23:27:51;;;;;;;13.90;6.35;;;;;;;;;;8297756;28;20065;-92
2023/01/30 23:31:55;;;;;;;10.13;5.43;;;;;;;;;;8297403;28;20089;-92
2023/01/30 23:36:01;;;;;;;13.88;6.15;;;;;;;;;;8297570;28;20080;-91
2023/01/30 23:40:05;;;;;;;12.90;5.65;;;;;;;;;;8297564;28;20497;-91
2023/01/30 23:44:10;;;;;;;13.48;6.93;;;;;;;;;;8297027;28;20137;-91
2023/01/30 23:48:13;;;;;;;14.68;6.30;;;;;;;;;;8297572;28;20042;-90
2023/01/30 23:52:16;;;;;;;8.65;4.47;;;;;;;;;;8298365;28;20034;-90
2023/01/30 23:56:20;;;;;;;11.15;5.97;;;;;;;;;;8298769;28;20071;-91
